Time;durP1;ratioP1;P1;durP2;ratioP2;P2;SDS_P1;SDS_P2;PMS_P1;PMS_P2;Temp;Humidity;BMP_temperature;BMP_pressure;BME280_temperature;BME280_humidity;BME280_pressure;Samples;Min_cycle;Max_cycle;Signal;HPM_P1;HPM_P2
2023/06/17 00:00:41;;;;;;;19.98;13.02;;;15.30;99.90;;;;;;5098248;28;20036;-60
2023/06/17 00:03:07;;;;;;;19.17;12.50;;;15.30;99.90;;;;;;5096477;28;20051;-61
2023/06/17 00:05:32;;;;;;;16.35;12.15;;;15.40;99.90;;;;;;5098167;28;20127;-60
2023/06/17 00:07:58;;;;;;;17.42;12.43;;;15.40;99.90;;;;;;5098128;28;20068;-61
2023/06/17 00:10:23;;;;;;;19.50;13.88;;;15.50;99.90;;;;;;5097154;28;20040;-61
2023/06/17 00:12:49;;;;;;;19.58;14.35;;;15.40;99.90;;;;;;5098077;28;20044;-61
2023/06/17 00:15:16;;;;;;;17.45;13.70;;;15.40;99.90;;;;;;5096629;28;20072;-61
2023/06/17 00:17:46;;;;;;;21.83;14.80;;;15.40;99.90;;;;;;5097881;28;20079;-60
2023/06/17 00:20:13;;;;;;;18.70;13.20;;;15.40;99.90;;;;;;5097691;28;20044;-61
2023/06/17 00:22:39;;;;;;;18.35;14.13;;;15.40;99.90;;;;;;5098141;28;20074;-61
2023/06/17 00:25:08;;;;;;;19.70;14.07;;;15.30;99.90;;;;;;5098133;28;20048;-60
2023/06/17 00:27:34;;;;;;;18.92;14.45;;;15.40;99.90;;;;;;5097386;28;20515;-60
2023/06/17 00:30:00;;;;;;;27.13;16.35;;;15.30;99.90;;;;;;5098297;28;20036;-60
2023/06/17 00:32:26;;;;;;;19.55;15.93;;;15.30;99.90;;;;;;5097683;28;20083;-60
2023/06/17 00:34:53;;;;;;;20.00;14.93;;;15.30;99.90;;;;;;5097951;28;20079;-61
2023/06/17 00:37:18;;;;;;;20.63;15.30;;;15.30;99.90;;;;;;5097757;28;20036;-61
2023/06/17 00:39:44;;;;;;;22.88;15.85;;;15.50;99.90;;;;;;5097972;28;20067;-61
2023/06/17 00:42:14;;;;;;;26.08;16.17;;;15.50;99.90;;;;;;5096512;28;20046;-61
2023/06/17 00:44:40;;;;;;;24.63;17.75;;;15.50;99.90;;;;;;5097594;28;20032;-61
2023/06/17 00:47:07;;;;;;;21.77;17.98;;;15.40;99.90;;;;;;5097139;28;20517;-61
2023/06/17 00:49:36;;;;;;;26.60;18.40;;;15.50;99.90;;;;;;5097639;28;20124;-61
2023/06/17 00:52:07;;;;;;;26.92;17.58;;;15.40;99.90;;;;;;5097944;28;20042;-61
2023/06/17 00:54:37;;;;;;;24.50;17.15;;;15.50;99.90;;;;;;5097492;28;20081;-61
2023/06/17 00:57:13;;;;;;;20.83;16.17;;;15.50;99.90;;;;;;5097607;28;20052;-60
2023/06/17 00:59:42;;;;;;;23.98;17.45;;;15.70;99.90;;;;;;5098169;28;20044;-61
2023/06/17 01:02:09;;;;;;;24.38;17.75;;;15.70;99.90;;;;;;5097268;28;20052;-61
2023/06/17 01:04:43;;;;;;;21.05;16.75;;;15.70;99.90;;;;;;5079929;28;20036;-61
2023/06/17 01:07:22;;;;;;;25.30;16.88;;;15.70;99.90;;;;;;5096257;28;20131;-61
2023/06/17 01:09:54;;;;;;;23.27;17.10;;;15.70;99.90;;;;;;5097523;28;20052;-60
2023/06/17 01:12:25;;;;;;;21.95;16.45;;;15.70;99.90;;;;;;5097616;28;20123;-61
2023/06/17 01:14:53;;;;;;;27.45;15.90;;;15.90;99.90;;;;;;5097299;28;20041;-61
2023/06/17 01:17:19;;;;;;;23.92;16.10;;;15.90;99.90;;;;;;5097868;28;20553;-61
2023/06/17 01:19:48;;;;;;;23.23;14.35;;;15.90;99.90;;;;;;5079227;28;20044;-61
2023/06/17 01:22:16;;;;;;;21.98;16.17;;;15.80;99.90;;;;;;5100852;28;20657;-61
2023/06/17 01:24:46;;;;;;;20.70;15.43;;;15.70;99.90;;;;;;5101064;28;20289;-61
2023/06/17 01:27:11;;;;;;;28.67;17.67;;;15.70;99.90;;;;;;5100721;28;20129;-60
2023/06/17 01:29:37;;;;;;;24.85;16.20;;;15.60;99.90;;;;;;5101478;28;20503;-61
2023/06/17 01:32:05;;;;;;;27.02;15.95;;;15.70;99.90;;;;;;5100497;28;20074;-61
2023/06/17 01:34:40;;;;;;;24.92;17.00;;;15.60;99.90;;;;;;5101244;28;20830;-61
2023/06/17 01:37:10;;;;;;;24.65;17.02;;;15.50;99.90;;;;;;5100945;28;20056;-61
2023/06/17 01:39:39;;;;;;;28.65;17.00;;;15.50;99.90;;;;;;5100792;28;20083;-60
2023/06/17 01:42:09;;;;;;;22.60;15.88;;;15.50;99.90;;;;;;5104613;28;20052;-61
2023/06/17 01:44:38;;;;;;;22.38;16.10;;;15.50;99.90;;;;;;5112219;28;20039;-60
2023/06/17 01:47:04;;;;;;;23.55;18.00;;;15.60;99.90;;;;;;5099876;28;20044;-60
2023/06/17 01:49:30;;;;;;;27.25;18.90;;;15.50;99.90;;;;;;5100115;28;20032;-61
2023/06/17 01:51:56;;;;;;;26.40;18.75;;;15.40;99.90;;;;;;5100668;28;20458;-61
2023/06/17 01:54:22;;;;;;;25.33;17.15;;;15.40;99.90;;;;;;5100526;28;20036;-60
2023/06/17 01:56:47;;;;;;;24.73;19.30;;;15.40;99.90;;;;;;5100364;28;20059;-61
2023/06/17 01:59:13;;;;;;;28.38;18.83;;;15.40;99.90;;;;;;5100201;28;20529;-61
2023/06/17 02:01:39;;;;;;;26.33;18.83;;;15.30;99.90;;;;;;5100023;28;20097;-60
2023/06/17 02:04:04;;;;;;;26.80;18.58;;;15.20;99.90;;;;;;5100938;28;20048;-60
2023/06/17 02:06:30;;;;;;;24.05;20.50;;;15.30;99.90;;;;;;5100182;28;20048;-61
2023/06/17 02:08:55;;;;;;;25.33;19.73;;;15.30;99.90;;;;;;5099223;28;20066;-58
2023/06/17 02:11:21;;;;;;;23.60;18.13;;;15.10;99.90;;;;;;5100103;28;20087;-59
2023/06/17 02:13:47;;;;;;;26.70;18.73;;;15.20;99.90;;;;;;5099532;28;20047;-59
2023/06/17 02:16:13;;;;;;;27.38;19.17;;;15.20;99.90;;;;;;5099824;28;20412;-58
2023/06/17 02:18:39;;;;;;;25.75;18.70;;;15.20;99.90;;;;;;5099057;28;20044;-58
2023/06/17 02:21:05;;;;;;;28.02;18.67;;;15.10;99.90;;;;;;5100027;28;20055;-59
2023/06/17 02:23:30;;;;;;;27.80;17.98;;;15.00;99.90;;;;;;5099399;28;20048;-58
2023/06/17 02:25:57;;;;;;;26.08;19.20;;;15.10;99.90;;;;;;5100660;28;20058;-59
2023/06/17 02:28:22;;;;;;;25.25;18.73;;;15.00;99.90;;;;;;5099501;28;20043;-57
2023/06/17 02:30:48;;;;;;;27.63;18.90;;;15.00;99.90;;;;;;5099869;28;20137;-58
2023/06/17 02:33:17;;;;;;;29.23;18.50;;;15.00;99.90;;;;;;5098744;28;20046;-57
2023/06/17 02:35:44;;;;;;;27.02;19.23;;;15.00;99.90;;;;;;5099774;28;20063;-59
2023/06/17 02:38:13;;;;;;;25.75;17.65;;;15.00;99.90;;;;;;5100333;28;20052;-59
2023/06/17 02:40:39;;;;;;;22.50;17.48;;;15.00;99.90;;;;;;5099387;28;20044;-58
2023/06/17 02:43:05;;;;;;;28.27;19.08;;;15.00;99.90;;;;;;5099696;28;20126;-59
2023/06/17 02:45:30;;;;;;;29.48;20.83;;;14.90;99.90;;;;;;5099802;28;20048;-60
2023/06/17 02:47:56;;;;;;;26.50;18.75;;;15.00;99.90;;;;;;5099522;28;20051;-60
2023/06/17 02:50:23;;;;;;;26.50;19.55;;;15.00;99.90;;;;;;5099411;28;20036;-61
2023/06/17 02:52:55;;;;;;;24.25;18.63;;;15.00;99.90;;;;;;5099517;28;20048;-61
2023/06/17 02:55:22;;;;;;;32.17;20.50;;;15.00;99.90;;;;;;5099704;28;20036;-61
2023/06/17 02:57:48;;;;;;;29.48;19.65;;;14.90;99.90;;;;;;5098934;28;20040;-60
2023/06/17 03:00:14;;;;;;;26.98;19.23;;;15.10;99.90;;;;;;5099338;28;20104;-61
2023/06/17 03:02:39;;;;;;;32.20;21.40;;;15.20;99.90;;;;;;5099123;28;20040;-60
2023/06/17 03:05:09;;;;;;;26.67;19.35;;;15.00;99.90;;;;;;5098771;28;20044;-61
2023/06/17 03:07:36;;;;;;;29.13;19.67;;;15.00;99.90;;;;;;5099117;28;20473;-61
2023/06/17 03:10:05;;;;;;;29.77;20.30;;;14.80;99.90;;;;;;5098523;28;20075;-60
2023/06/17 03:12:31;;;;;;;31.02;19.85;;;14.90;99.90;;;;;;5099500;28;20040;-61
2023/06/17 03:14:57;;;;;;;24.00;17.48;;;15.00;99.90;;;;;;5098635;28;20141;-60
2023/06/17 03:17:24;;;;;;;26.55;17.52;;;15.00;99.90;;;;;;5099190;28;20078;-60
2023/06/17 03:19:51;;;;;;;25.40;15.98;;;15.00;99.90;;;;;;5098700;28;20044;-60
2023/06/17 03:22:17;;;;;;;24.70;16.52;;;15.10;99.90;;;;;;5098974;28;20040;-60
2023/06/17 03:24:42;;;;;;;24.92;16.88;;;14.90;99.90;;;;;;5098702;28;20040;-61
2023/06/17 03:27:08;;;;;;;27.75;17.77;;;14.90;99.90;;;;;;5098735;28;20047;-60
2023/06/17 03:29:37;;;;;;;22.80;16.95;;;14.80;99.90;;;;;;5099007;28;20040;-61
2023/06/17 03:32:03;;;;;;;28.10;17.20;;;14.70;99.90;;;;;;5098417;28;20058;-60
2023/06/17 03:34:29;;;;;;;25.17;17.02;;;14.80;99.90;;;;;;5097873;28;20131;-60
2023/06/17 03:36:56;;;;;;;28.30;16.63;;;14.80;99.90;;;;;;5098701;28;20043;-61
2023/06/17 03:39:22;;;;;;;26.00;16.00;;;14.80;99.90;;;;;;5098650;28;20099;-60
2023/06/17 03:41:48;;;;;;;27.52;17.83;;;14.90;99.90;;;;;;5096966;28;20052;-61
2023/06/17 03:44:13;;;;;;;28.20;17.05;;;14.90;99.90;;;;;;5098453;28;20051;-60
2023/06/17 03:46:39;;;;;;;29.38;18.00;;;14.90;99.90;;;;;;5098877;28;20135;-60
2023/06/17 03:49:05;;;;;;;25.05;17.40;;;14.80;99.90;;;;;;5098214;28;20100;-60
2023/06/17 03:51:31;;;;;;;23.77;16.52;;;14.90;99.90;;;;;;5098583;28;20040;-61
2023/06/17 03:53:57;;;;;;;28.40;18.65;;;14.90;99.90;;;;;;5098376;28;20044;-60
2023/06/17 03:56:22;;;;;;;26.38;17.10;;;14.80;99.90;;;;;;5098101;28;20036;-60
2023/06/17 03:58:48;;;;;;;25.50;17.08;;;14.90;99.90;;;;;;5097665;28;20044;-60
2023/06/17 04:01:14;;;;;;;26.38;18.17;;;15.00;99.90;;;;;;5098261;28;20052;-60
2023/06/17 04:03:41;;;;;;;28.25;19.10;;;14.90;99.90;;;;;;5098281;28;20039;-60
2023/06/17 04:06:08;;;;;;;24.50;18.13;;;15.10;99.90;;;;;;5097783;28;20068;-61
2023/06/17 04:08:35;;;;;;;29.17;17.95;;;15.10;99.90;;;;;;5098242;28;20082;-61
2023/06/17 04:11:02;;;;;;;24.95;17.50;;;15.20;99.90;;;;;;5097971;28;20521;-60
2023/06/17 04:13:28;;;;;;;25.88;19.23;;;15.20;99.90;;;;;;5097945;28;20131;-60
2023/06/17 04:15:54;;;;;;;25.33;18.52;;;15.10;99.90;;;;;;5098132;28;20036;-61
2023/06/17 04:18:20;;;;;;;27.20;17.15;;;15.20;99.90;;;;;;5097849;28;20054;-60
2023/06/17 04:20:45;;;;;;;22.08;17.83;;;15.00;99.90;;;;;;5098026;28;20052;-60
2023/06/17 04:23:11;;;;;;;27.42;19.33;;;15.10;99.90;;;;;;5097716;28;20040;-60
2023/06/17 04:25:37;;;;;;;24.75;18.58;;;14.90;99.90;;;;;;5098332;28;20052;-61
2023/06/17 04:28:07;;;;;;;28.33;19.40;;;15.00;99.90;;;;;;5097943;28;20384;-61
2023/06/17 04:30:33;;;;;;;26.88;19.13;;;14.90;99.90;;;;;;5097750;28;20044;-60
2023/06/17 04:33:00;;;;;;;29.10;21.02;;;14.90;99.90;;;;;;5097547;28;20051;-60
2023/06/17 04:35:27;;;;;;;27.50;19.38;;;14.90;99.90;;;;;;5097895;28;20052;-59
2023/06/17 04:37:56;;;;;;;33.67;24.20;;;15.00;99.90;;;;;;5097994;28;20086;-60
2023/06/17 04:40:25;;;;;;;32.40;23.35;;;14.90;99.90;;;;;;5097583;28;20111;-61
2023/06/17 04:42:51;;;;;;;29.55;20.90;;;15.00;99.90;;;;;;5097970;28;20069;-60
2023/06/17 04:45:18;;;;;;;32.30;22.25;;;15.00;99.90;;;;;;5097589;28;20571;-60
2023/06/17 04:47:46;;;;;;;33.53;23.08;;;15.00;99.90;;;;;;5097635;28;20059;-61
2023/06/17 04:50:16;;;;;;;32.67;23.75;;;14.90;99.90;;;;;;5097609;28;20066;-61
2023/06/17 04:52:50;;;;;;;34.67;21.70;;;14.80;99.90;;;;;;5096492;28;20044;-61
2023/06/17 04:55:18;;;;;;;30.30;21.20;;;14.90;99.90;;;;;;5098769;28;20048;-62
2023/06/17 04:57:44;;;;;;;27.60;19.33;;;15.00;99.90;;;;;;5101560;28;20058;-61
2023/06/17 05:00:12;;;;;;;28.02;18.92;;;14.90;99.90;;;;;;5101575;28;20514;-61
2023/06/17 05:02:38;;;;;;;30.60;19.90;;;15.00;99.90;;;;;;5099877;28;20048;-61
2023/06/17 05:05:07;;;;;;;29.55;19.45;;;14.90;99.90;;;;;;5101669;28;20048;-60
2023/06/17 05:07:33;;;;;;;30.25;20.58;;;14.90;99.90;;;;;;5101428;28;20098;-58
2023/06/17 05:10:00;;;;;;;30.60;20.17;;;15.00;99.90;;;;;;5099800;28;20097;-60
2023/06/17 05:12:26;;;;;;;30.80;18.83;;;15.00;99.90;;;;;;5101722;28;20043;-60
2023/06/17 05:14:52;;;;;;;25.50;17.08;;;15.10;99.90;;;;;;5100771;28;20569;-60
2023/06/17 05:17:18;;;;;;;28.83;19.17;;;14.90;99.90;;;;;;5101252;28;20056;-61
2023/06/17 05:19:44;;;;;;;27.35;17.83;;;14.90;99.90;;;;;;5101229;28;20097;-61
2023/06/17 05:22:09;;;;;;;25.15;17.10;;;14.90;99.90;;;;;;5099254;28;20062;-60
2023/06/17 05:24:35;;;;;;;26.70;18.38;;;15.00;99.90;;;;;;5100689;28;20125;-60
2023/06/17 05:27:01;;;;;;;30.05;18.30;;;15.00;99.90;;;;;;5106093;28;20040;-59
2023/06/17 05:29:26;;;;;;;25.05;18.65;;;15.10;99.90;;;;;;5110040;28;20135;-59
2023/06/17 05:31:52;;;;;;;26.63;18.42;;;15.00;99.90;;;;;;5102702;28;20046;-60
2023/06/17 05:34:18;;;;;;;25.08;17.65;;;15.00;99.90;;;;;;5100889;28;20131;-60
2023/06/17 05:36:43;;;;;;;29.15;20.02;;;15.00;99.90;;;;;;5100967;28;20099;-59
2023/06/17 05:39:09;;;;;;;30.20;20.75;;;15.00;99.90;;;;;;5100620;28;20556;-59
2023/06/17 05:41:35;;;;;;;33.55;20.17;;;15.00;99.90;;;;;;5096156;28;20047;-60
2023/06/17 05:44:00;;;;;;;28.85;20.80;;;15.00;99.90;;;;;;5097417;28;20036;-60
2023/06/17 05:46:26;;;;;;;28.00;19.40;;;15.10;99.90;;;;;;5097566;28;20054;-59
2023/06/17 05:48:52;;;;;;;26.67;18.55;;;15.20;99.90;;;;;;5097235;28;20070;-60
2023/06/17 05:51:18;;;;;;;28.20;16.92;;;15.20;99.90;;;;;;5097753;28;20044;-60
2023/06/17 05:53:44;;;;;;;22.88;16.70;;;15.40;99.90;;;;;;5096897;28;20047;-59
2023/06/17 05:56:09;;;;;;;26.77;17.88;;;15.40;99.90;;;;;;5097537;28;20059;-60
2023/06/17 05:58:36;;;;;;;27.67;17.33;;;15.40;99.90;;;;;;5095332;28;20040;-60
2023/06/17 06:01:01;;;;;;;24.92;16.55;;;15.40;99.90;;;;;;5097096;28;20067;-59
2023/06/17 06:03:27;;;;;;;26.58;17.80;;;15.30;99.90;;;;;;5109912;28;20071;-60
2023/06/17 06:05:53;;;;;;;23.60;17.25;;;15.50;99.90;;;;;;5116700;28;20054;-60
2023/06/17 06:08:19;;;;;;;26.73;17.02;;;15.40;99.90;;;;;;5116516;28;20061;-59
2023/06/17 06:10:44;;;;;;;28.00;16.80;;;15.40;99.90;;;;;;5117249;28;20051;-60
2023/06/17 06:13:10;;;;;;;28.13;18.83;;;15.40;99.90;;;;;;5117079;28;20035;-60
2023/06/17 06:15:36;;;;;;;23.02;17.60;;;15.30;99.90;;;;;;5117312;28;20047;-60
2023/06/17 06:18:02;;;;;;;27.17;18.77;;;15.40;99.90;;;;;;5116774;28;20502;-60
2023/06/17 06:20:28;;;;;;;27.67;19.23;;;15.40;99.90;;;;;;5117223;28;20059;-60
2023/06/17 06:22:54;;;;;;;27.75;19.38;;;15.40;99.90;;;;;;5116796;28;20047;-60
2023/06/17 06:25:20;;;;;;;26.90;18.15;;;15.30;99.90;;;;;;5117317;28;20084;-60
2023/06/17 06:27:47;;;;;;;25.42;18.25;;;15.40;99.90;;;;;;5116599;28;20052;-60
2023/06/17 06:30:13;;;;;;;29.45;17.98;;;15.50;99.90;;;;;;5116714;28;20079;-60
2023/06/17 06:32:39;;;;;;;22.10;17.13;;;15.50;99.90;;;;;;5116792;28;20454;-60
2023/06/17 06:35:05;;;;;;;28.83;18.38;;;15.50;99.90;;;;;;5116708;28;20127;-60
2023/06/17 06:37:31;;;;;;;28.27;19.45;;;15.50;99.90;;;;;;5115415;28;20048;-60
2023/06/17 06:39:56;;;;;;;26.70;19.83;;;15.50;99.90;;;;;;5115394;28;20094;-60
2023/06/17 06:42:22;;;;;;;30.48;18.95;;;15.60;99.90;;;;;;5116647;28;20494;-60
2023/06/17 06:44:48;;;;;;;25.00;17.80;;;15.60;99.90;;;;;;5116669;27;20074;-60
2023/06/17 06:47:14;;;;;;;26.08;18.10;;;15.70;99.90;;;;;;5117045;28;20112;-59
2023/06/17 06:49:40;;;;;;;25.90;17.08;;;15.90;99.90;;;;;;5116641;28;20774;-60
2023/06/17 06:52:06;;;;;;;25.95;16.65;;;15.80;99.90;;;;;;5116585;28;20050;-60
2023/06/17 06:54:31;;;;;;;23.55;16.90;;;15.90;99.90;;;;;;5115661;28;20036;-60
2023/06/17 06:56:57;;;;;;;20.83;15.55;;;15.90;99.90;;;;;;5115874;28;20043;-60
2023/06/17 06:59:23;;;;;;;22.20;15.27;;;16.00;99.90;;;;;;5115827;28;20075;-59
2023/06/17 07:01:49;;;;;;;22.48;14.93;;;16.10;99.90;;;;;;5115726;28;20051;-60
2023/06/17 07:04:15;;;;;;;18.90;14.25;;;16.20;99.90;;;;;;5116209;28;20574;-60
2023/06/17 07:06:40;;;;;;;21.80;14.95;;;16.10;99.90;;;;;;5116427;28;20289;-60
2023/06/17 07:09:06;;;;;;;18.63;12.93;;;16.10;99.90;;;;;;5116005;28;20051;-60
2023/06/17 07:11:32;;;;;;;23.52;13.73;;;16.30;99.90;;;;;;5115774;28;20047;-60
2023/06/17 07:13:58;;;;;;;19.92;13.80;;;16.30;99.90;;;;;;5116124;28;20039;-60
2023/06/17 07:16:23;;;;;;;19.58;13.80;;;16.30;99.90;;;;;;5115853;28;20040;-59
2023/06/17 07:18:49;;;;;;;20.73;13.40;;;16.50;99.90;;;;;;5115344;28;20062;-60
2023/06/17 07:21:15;;;;;;;23.20;14.23;;;16.70;99.90;;;;;;5116216;28;20119;-60
2023/06/17 07:23:40;;;;;;;19.10;12.75;;;17.00;99.90;;;;;;5115829;27;20061;-60
2023/06/17 07:26:06;;;;;;;19.50;13.23;;;17.20;99.90;;;;;;5115687;28;20541;-60
2023/06/17 07:28:33;;;;;;;18.13;12.13;;;17.30;99.90;;;;;;5115284;28;20051;-60
2023/06/17 07:30:59;;;;;;;20.80;13.25;;;17.60;99.90;;;;;;5115836;28;20108;-59
2023/06/17 07:33:26;;;;;;;19.27;13.38;;;17.30;99.90;;;;;;5114270;28;20044;-60
2023/06/17 07:35:52;;;;;;;19.63;12.85;;;17.50;99.90;;;;;;5115511;28;20043;-58
2023/06/17 07:38:18;;;;;;;18.58;11.85;;;17.40;99.90;;;;;;5100631;28;20044;-60
2023/06/17 07:40:46;;;;;;;16.13;11.80;;;17.20;99.90;;;;;;5107236;28;21030;-60
2023/06/17 07:43:12;;;;;;;17.33;10.68;;;17.40;99.90;;;;;;5107099;28;20074;-60
2023/06/17 07:45:38;;;;;;;14.82;10.65;;;18.00;99.90;;;;;;5106163;28;20043;-61
2023/06/17 07:48:04;;;;;;;18.92;10.88;;;18.20;99.90;;;;;;5108703;28;20059;-60
2023/06/17 07:50:30;;;;;;;16.23;10.10;;;18.00;99.90;;;;;;5094950;28;20437;-61
2023/06/17 07:52:57;;;;;;;17.90;10.00;;;17.90;99.90;;;;;;5095710;28;20040;-60
2023/06/17 07:55:22;;;;;;;16.70;10.48;;;18.20;99.90;;;;;;5098157;28;20044;-60
2023/06/17 07:57:48;;;;;;;20.00;10.50;;;18.70;99.90;;;;;;5097599;28;20081;-60
2023/06/17 08:00:14;;;;;;;17.73;10.90;;;18.80;99.90;;;;;;5098474;28;20407;-60
2023/06/17 08:02:41;;;;;;;16.85;11.18;;;18.50;99.90;;;;;;5097774;28;20040;-60
2023/06/17 08:05:08;;;;;;;20.35;11.77;;;18.40;99.90;;;;;;5098164;28;20051;-60
2023/06/17 08:07:34;;;;;;;17.08;10.82;;;18.00;99.90;;;;;;5100113;28;20044;-61
2023/06/17 08:09:59;;;;;;;17.63;11.48;;;18.30;99.90;;;;;;5101018;28;20377;-59
2023/06/17 08:12:25;;;;;;;15.73;11.18;;;18.10;99.90;;;;;;5101414;28;20054;-60
2023/06/17 08:14:51;;;;;;;17.60;11.02;;;17.90;99.90;;;;;;5099046;28;20040;-60
2023/06/17 08:17:17;;;;;;;15.63;10.98;;;18.40;99.90;;;;;;5104839;28;20078;-61
2023/06/17 08:19:43;;;;;;;18.15;11.52;;;18.10;99.90;;;;;;5103792;28;20109;-60
2023/06/17 08:22:10;;;;;;;17.38;11.73;;;17.90;99.90;;;;;;5100095;28;20095;-60
2023/06/17 08:24:35;;;;;;;20.40;10.50;;;18.00;99.90;;;;;;5100969;28;20071;-60
2023/06/17 08:27:01;;;;;;;17.85;11.23;;;17.90;99.90;;;;;;5102920;28;20517;-60
2023/06/17 08:29:27;;;;;;;18.25;11.15;;;18.30;99.90;;;;;;5101727;28;20052;-60
2023/06/17 08:31:53;;;;;;;15.25;9.68;;;18.30;99.90;;;;;;5104894;28;20051;-59
2023/06/17 08:34:21;;;;;;;15.18;10.18;;;18.90;99.90;;;;;;5103198;28;20151;-60
2023/06/17 08:36:52;;;;;;;17.50;10.05;;;19.20;99.90;;;;;;5107451;28;20129;-60
2023/06/17 08:39:18;;;;;;;16.63;10.88;;;19.20;99.90;;;;;;5108040;28;20100;-60
2023/06/17 08:41:45;;;;;;;14.95;10.40;;;19.20;99.90;;;;;;5111244;28;20059;-61
2023/06/17 08:44:13;;;;;;;16.88;10.55;;;19.30;99.90;;;;;;5097504;28;20040;-60
2023/06/17 08:46:44;;;;;;;16.83;10.75;;;19.00;99.90;;;;;;5098140;28;20096;-60
2023/06/17 08:49:14;;;;;;;15.18;10.45;;;19.30;99.90;;;;;;5097861;28;20055;-60
2023/06/17 08:51:40;;;;;;;15.23;10.10;;;18.90;99.90;;;;;;5097585;28;20059;-60
2023/06/17 08:54:06;;;;;;;17.73;10.75;;;18.70;99.90;;;;;;5097383;28;20069;-60
2023/06/17 08:56:33;;;;;;;16.60;10.75;;;18.60;99.90;;;;;;5096223;28;20048;-60
2023/06/17 08:58:59;;;;;;;14.20;10.60;;;19.00;99.90;;;;;;5097520;28;20048;-60
2023/06/17 09:01:26;;;;;;;13.90;9.95;;;19.20;99.90;;;;;;5095516;28;20093;-60
2023/06/17 09:03:53;;;;;;;21.02;12.23;;;19.20;99.90;;;;;;5097785;28;20093;-60
2023/06/17 09:06:27;;;;;;;16.95;9.27;;;19.00;99.90;;;;;;5097229;28;20147;-60
2023/06/17 09:08:54;;;;;;;17.70;10.07;;;19.20;99.90;;;;;;5106607;28;20036;-60
2023/06/17 09:11:27;;;;;;;14.32;9.25;;;19.10;99.90;;;;;;5117068;28;20051;-60
2023/06/17 09:13:54;;;;;;;15.57;9.65;;;19.60;99.90;;;;;;5114501;28;20044;-60
2023/06/17 09:16:34;;;;;;;20.15;9.90;;;19.60;99.90;;;;;;5116874;28;20130;-60
2023/06/17 09:19:04;;;;;;;15.00;9.70;;;19.60;99.90;;;;;;5117410;28;20454;-60
2023/06/17 09:21:30;;;;;;;18.30;9.80;;;19.90;99.90;;;;;;5114051;28;20491;-60
2023/06/17 09:24:04;;;;;;;13.45;9.70;;;20.20;99.90;;;;;;5100558;28;20122;-60
2023/06/17 09:26:30;;;;;;;12.98;9.02;;;20.30;99.90;;;;;;5097974;28;20046;-60
2023/06/17 09:29:14;;;;;;;17.15;10.73;;;20.60;99.90;;;;;;5104196;28;20055;-60
2023/06/17 09:31:51;;;;;;;16.23;10.40;;;20.10;99.90;;;;;;5102477;28;20040;-60
2023/06/17 09:34:17;;;;;;;16.33;10.60;;;20.30;99.90;;;;;;5098569;28;20153;-60
2023/06/17 09:36:44;;;;;;;13.23;9.75;;;20.10;99.90;;;;;;5104697;28;20071;-60
2023/06/17 09:39:13;;;;;;;14.68;10.18;;;20.30;99.90;;;;;;5117165;28;20039;-57
2023/06/17 09:41:40;;;;;;;17.40;10.70;;;20.60;99.90;;;;;;5118501;28;20116;-60
2023/06/17 09:44:06;;;;;;;16.58;10.93;;;20.20;99.90;;;;;;5118306;28;20044;-59
2023/06/17 09:46:39;;;;;;;18.80;10.70;;;20.20;99.90;;;;;;5105040;28;20507;-60
2023/06/17 09:49:15;;;;;;;17.65;9.85;;;20.50;99.90;;;;;;5106633;28;20042;-60
2023/06/17 09:51:42;;;;;;;16.58;10.73;;;20.90;99.90;;;;;;5102448;28;20055;-60
2023/06/17 09:54:11;;;;;;;15.68;10.77;;;20.60;99.90;;;;;;5102405;28;20160;-60
2023/06/17 09:56:37;;;;;;;15.05;10.27;;;20.60;99.90;;;;;;5106210;28;20034;-60
2023/06/17 09:59:05;;;;;;;16.23;10.77;;;20.70;99.90;;;;;;5104279;28;20702;-60
2023/06/17 10:01:31;;;;;;;15.60;10.60;;;20.70;99.90;;;;;;5105975;28;20047;-60
2023/06/17 10:04:00;;;;;;;15.50;10.40;;;20.50;99.90;;;;;;5110581;28;20036;-60
2023/06/17 10:06:32;;;;;;;19.23;11.30;;;20.90;99.90;;;;;;5109659;28;20040;-61
2023/06/17 10:08:59;;;;;;;17.38;10.75;;;20.60;99.90;;;;;;5106495;28;20055;-60
2023/06/17 10:11:25;;;;;;;14.63;10.45;;;21.20;99.90;;;;;;5111002;28;20510;-61
2023/06/17 10:14:21;;;;;;;15.32;10.88;;;21.30;99.90;;;;;;5111174;28;20047;-61
2023/06/17 10:16:49;;;;;;;16.83;10.00;;;20.80;99.90;;;;;;5110419;28;20116;-60
2023/06/17 10:19:24;;;;;;;15.32;10.40;;;21.20;99.90;;;;;;5116921;28;20055;-60
2023/06/17 10:21:53;;;;;;;17.10;10.52;;;21.30;99.90;;;;;;5106506;28;20078;-61
2023/06/17 10:24:19;;;;;;;19.45;11.32;;;21.70;99.90;;;;;;5110476;28;20502;-60
2023/06/17 10:26:50;;;;;;;15.80;10.65;;;21.30;99.90;;;;;;5106573;28;20051;-60
2023/06/17 10:29:16;;;;;;;17.45;10.40;;;21.40;99.90;;;;;;5115354;28;20127;-60
2023/06/17 10:31:42;;;;;;;14.50;10.52;;;21.50;99.90;;;;;;5105676;28;20044;-60
2023/06/17 10:34:21;;;;;;;16.38;10.43;;;21.70;99.90;;;;;;5108521;28;20134;-59
2023/06/17 10:36:57;;;;;;;16.65;9.23;;;21.60;99.90;;;;;;5118271;28;21014;-59
2023/06/17 10:39:23;;;;;;;15.73;10.50;;;21.80;99.90;;;;;;5107744;28;20081;-60
2023/06/17 10:41:55;;;;;;;14.60;9.50;;;22.10;99.90;;;;;;5104372;28;20850;-61
2023/06/17 10:44:39;;;;;;;15.57;10.18;;;22.10;99.90;;;;;;5105072;28;20090;-60
2023/06/17 10:47:29;;;;;;;17.23;10.30;;;22.20;99.90;;;;;;5110474;28;20047;-60
2023/06/17 10:49:55;;;;;;;17.42;10.63;;;21.90;99.90;;;;;;5099339;28;20048;-60
2023/06/17 10:52:20;;;;;;;15.32;9.23;;;22.10;99.90;;;;;;5104837;28;20043;-60
2023/06/17 10:54:55;;;;;;;13.95;9.32;;;21.80;99.90;;;;;;5110628;28;20036;-60
2023/06/17 10:57:34;;;;;;;15.27;9.00;;;22.20;99.90;;;;;;5117543;28;20047;-60
2023/06/17 11:00:08;;;;;;;16.48;9.20;;;22.40;99.90;;;;;;5113449;28;20036;-60
2023/06/17 11:02:37;;;;;;;15.75;8.93;;;22.40;99.90;;;;;;5118075;28;20498;-60
2023/06/17 11:05:03;;;;;;;17.05;9.23;;;22.40;99.90;;;;;;5113879;28;20039;-60
2023/06/17 11:07:29;;;;;;;12.88;8.27;;;22.50;99.90;;;;;;5101035;28;20074;-60
2023/06/17 11:09:55;;;;;;;11.88;8.60;;;22.90;99.90;;;;;;5114365;28;20130;-60
2023/06/17 11:12:21;;;;;;;12.80;8.43;;;23.00;99.90;;;;;;5113632;28;20260;-59
2023/06/17 11:14:47;;;;;;;13.07;7.63;;;23.40;99.90;;;;;;5113564;28;20036;-58
2023/06/17 11:17:12;;;;;;;13.80;8.05;;;23.50;99.90;;;;;;5112210;28;20082;-58
2023/06/17 11:19:38;;;;;;;15.25;8.15;;;23.00;99.90;;;;;;5115427;28;20059;-58
2023/06/17 11:22:04;;;;;;;13.75;8.45;;;23.00;99.90;;;;;;5112891;28;20058;-59
2023/06/17 11:24:31;;;;;;;16.52;8.52;;;23.20;99.90;;;;;;5109463;28;20069;-59
2023/06/17 11:26:58;;;;;;;13.80;7.65;;;23.20;99.90;;;;;;5109237;28;20520;-58
2023/06/17 11:29:28;;;;;;;14.27;8.60;;;23.10;99.90;;;;;;5107925;28;20063;-58
2023/06/17 11:31:57;;;;;;;13.88;8.00;;;23.10;99.90;;;;;;5102312;28;20035;-58
2023/06/17 11:34:23;;;;;;;14.07;8.10;;;23.30;99.90;;;;;;5106016;28;20040;-58
2023/06/17 11:36:53;;;;;;;14.07;8.60;;;23.10;99.90;;;;;;5102215;28;20101;-58
2023/06/17 11:39:31;;;;;;;12.90;8.55;;;23.20;99.90;;;;;;5106205;28;20042;-58
2023/06/17 11:42:02;;;;;;;12.90;7.68;;;23.50;99.90;;;;;;5106528;28;20032;-58
2023/06/17 11:44:30;;;;;;;12.13;8.05;;;23.80;99.90;;;;;;5102883;28;20040;-58
2023/06/17 11:46:58;;;;;;;14.38;7.80;;;23.10;99.90;;;;;;5104531;28;20036;-59
2023/06/17 11:49:27;;;;;;;14.40;8.38;;;23.20;99.90;;;;;;5103078;28;20140;-58
2023/06/17 11:51:53;;;;;;;14.18;7.60;;;23.20;99.90;;;;;;5104931;28;20046;-58
2023/06/17 11:54:22;;;;;;;15.98;8.40;;;23.10;99.90;;;;;;5104478;28;20048;-58
2023/06/17 11:56:49;;;;;;;14.98;8.18;;;23.50;99.90;;;;;;5102429;28;20100;-58
2023/06/17 11:59:19;;;;;;;14.38;8.27;;;23.70;99.90;;;;;;5102042;28;20087;-57
2023/06/17 12:01:45;;;;;;;13.32;8.02;;;23.00;99.90;;;;;;5097939;28;20058;-57
2023/06/17 12:04:12;;;;;;;12.95;7.90;;;23.20;99.90;;;;;;5098140;28;20035;-58
2023/06/17 12:06:40;;;;;;;12.18;7.47;;;23.30;99.90;;;;;;5099000;28;20043;-59
2023/06/17 12:09:08;;;;;;;12.93;7.88;;;23.60;99.90;;;;;;5103218;28;20046;-58
2023/06/17 12:11:37;;;;;;;15.07;7.43;;;24.10;99.90;;;;;;5105743;28;20074;-59
2023/06/17 12:14:13;;;;;;;11.93;8.50;;;24.10;99.90;;;;;;5112570;28;20061;-58
2023/06/17 12:16:41;;;;;;;14.20;8.32;;;24.20;99.90;;;;;;5108687;28;20050;-58
2023/06/17 12:19:13;;;;;;;12.77;8.38;;;24.00;99.90;;;;;;5104707;28;20475;-58
2023/06/17 12:21:39;;;;;;;13.82;7.97;;;24.40;99.90;;;;;;5106548;28;20052;-59
2023/06/17 12:24:05;;;;;;;15.93;8.30;;;24.60;99.90;;;;;;5106623;28;20051;-59
2023/06/17 12:26:31;;;;;;;14.30;8.25;;;24.50;99.90;;;;;;5103688;28;20040;-58
2023/06/17 12:28:57;;;;;;;12.00;7.63;;;24.40;99.90;;;;;;5113406;28;20055;-58